sensor_id;sensor_type;location;lat;lon;timestamp;P1;durP1;ratioP1;P2;durP2;ratioP2
60873;SDS011;46715;40.642;-7.920;2023-11-21T00:01:08;25.63;;;15.83;;
60873;SDS011;46715;40.642;-7.920;2023-11-21T00:03:09;27.35;;;18.17;;
60873;SDS011;46715;40.642;-7.920;2023-11-21T00:05:12;26.55;;;16.25;;
60873;SDS011;46715;40.642;-7.920;2023-11-21T00:07:16;29.80;;;16.88;;
60873;SDS011;46715;40.642;-7.920;2023-11-21T00:09:17;22.67;;;16.00;;
60873;SDS011;46715;40.642;-7.920;2023-11-21T00:11:18;27.75;;;17.88;;
60873;SDS011;46715;40.642;-7.920;2023-11-21T00:13:19;24.67;;;16.83;;
60873;SDS011;46715;40.642;-7.920;2023-11-21T00:15:20;27.50;;;16.70;;
60873;SDS011;46715;40.642;-7.920;2023-11-21T00:17:22;23.27;;;16.25;;
60873;SDS011;46715;40.642;-7.920;2023-11-21T00:19:22;22.63;;;14.93;;
60873;SDS011;46715;40.642;-7.920;2023-11-21T00:21:23;24.83;;;15.77;;
60873;SDS011;46715;40.642;-7.920;2023-11-21T00:23:24;27.73;;;14.93;;
60873;SDS011;46715;40.642;-7.920;2023-11-21T00:25:25;26.05;;;16.17;;
60873;SDS011;46715;40.642;-7.920;2023-11-21T00:27:26;26.20;;;15.63;;
60873;SDS011;46715;40.642;-7.920;2023-11-21T00:29:27;24.37;;;15.87;;
60873;SDS011;46715;40.642;-7.920;2023-11-21T00:31:27;25.37;;;18.03;;
60873;SDS011;46715;40.642;-7.920;2023-11-21T00:33:28;28.13;;;18.33;;
60873;SDS011;46715;40.642;-7.920;2023-11-21T00:35:29;29.40;;;19.27;;
60873;SDS011;46715;40.642;-7.920;2023-11-21T00:37:37;27.63;;;16.45;;
60873;SDS011;46715;40.642;-7.920;2023-11-21T00:39:40;26.95;;;16.77;;
60873;SDS011;46715;40.642;-7.920;2023-11-21T00:41:40;22.33;;;14.77;;
60873;SDS011;46715;40.642;-7.920;2023-11-21T00:43:42;24.38;;;15.77;;
60873;SDS011;46715;40.642;-7.920;2023-11-21T00:45:44;19.75;;;13.73;;
60873;SDS011;46715;40.642;-7.920;2023-11-21T00:47:45;20.23;;;14.10;;
60873;SDS011;46715;40.642;-7.920;2023-11-21T00:49:46;21.07;;;13.97;;
60873;SDS011;46715;40.642;-7.920;2023-11-21T00:51:46;19.93;;;14.20;;
60873;SDS011;46715;40.642;-7.920;2023-11-21T00:53:47;19.50;;;13.73;;
60873;SDS011;46715;40.642;-7.920;2023-11-21T00:55:48;21.53;;;14.00;;
60873;SDS011;46715;40.642;-7.920;2023-11-21T00:57:49;19.53;;;13.77;;
60873;SDS011;46715;40.642;-7.920;2023-11-21T00:59:50;18.67;;;13.67;;
60873;SDS011;46715;40.642;-7.920;2023-11-21T01:01:50;20.80;;;12.60;;
60873;SDS011;46715;40.642;-7.920;2023-11-21T01:03:52;18.43;;;12.40;;
60873;SDS011;46715;40.642;-7.920;2023-11-21T01:05:54;18.77;;;11.95;;
60873;SDS011;46715;40.642;-7.920;2023-11-21T01:07:55;15.80;;;11.27;;
60873;SDS011;46715;40.642;-7.920;2023-11-21T01:09:56;14.00;;;9.98;;
60873;SDS011;46715;40.642;-7.920;2023-11-21T01:11:56;15.70;;;10.33;;
60873;SDS011;46715;40.642;-7.920;2023-11-21T01:13:57;18.07;;;11.47;;
60873;SDS011;46715;40.642;-7.920;2023-11-21T01:16:00;15.95;;;10.60;;
60873;SDS011;46715;40.642;-7.920;2023-11-21T01:18:01;17.20;;;10.53;;
60873;SDS011;46715;40.642;-7.920;2023-11-21T01:20:02;17.53;;;11.17;;
60873;SDS011;46715;40.642;-7.920;2023-11-21T01:22:06;17.10;;;11.13;;
60873;SDS011;46715;40.642;-7.920;2023-11-21T01:24:07;15.97;;;10.53;;
60873;SDS011;46715;40.642;-7.920;2023-11-21T01:26:08;16.03;;;9.90;;
60873;SDS011;46715;40.642;-7.920;2023-11-21T01:28:10;15.13;;;10.43;;
60873;SDS011;46715;40.642;-7.920;2023-11-21T01:30:11;14.83;;;9.43;;
60873;SDS011;46715;40.642;-7.920;2023-11-21T01:32:11;14.17;;;9.47;;
60873;SDS011;46715;40.642;-7.920;2023-11-21T01:34:12;13.83;;;9.13;;
60873;SDS011;46715;40.642;-7.920;2023-11-21T01:36:14;14.13;;;8.35;;
60873;SDS011;46715;40.642;-7.920;2023-11-21T01:38:15;14.33;;;9.27;;
60873;SDS011;46715;40.642;-7.920;2023-11-21T01:40:17;19.25;;;10.15;;
60873;SDS011;46715;40.642;-7.920;2023-11-21T01:42:19;12.35;;;8.02;;
60873;SDS011;46715;40.642;-7.920;2023-11-21T01:44:19;13.63;;;8.17;;
60873;SDS011;46715;40.642;-7.920;2023-11-21T01:46:20;10.60;;;7.20;;
60873;SDS011;46715;40.642;-7.920;2023-11-21T01:48:23;10.77;;;6.88;;
60873;SDS011;46715;40.642;-7.920;2023-11-21T01:50:24;14.40;;;7.60;;
60873;SDS011;46715;40.642;-7.920;2023-11-21T01:52:25;13.40;;;7.90;;
60873;SDS011;46715;40.642;-7.920;2023-11-21T01:54:29;11.98;;;8.00;;
60873;SDS011;46715;40.642;-7.920;2023-11-21T01:56:31;12.50;;;7.70;;
60873;SDS011;46715;40.642;-7.920;2023-11-21T01:58:32;10.65;;;6.80;;
60873;SDS011;46715;40.642;-7.920;2023-11-21T02:00:33;12.13;;;7.30;;
60873;SDS011;46715;40.642;-7.920;2023-11-21T02:02:35;15.25;;;5.63;;
60873;SDS011;46715;40.642;-7.920;2023-11-21T02:04:36;14.37;;;5.27;;
60873;SDS011;46715;40.642;-7.920;2023-11-21T02:06:37;11.30;;;4.80;;
60873;SDS011;46715;40.642;-7.920;2023-11-21T02:08:39;8.40;;;4.40;;
60873;SDS011;46715;40.642;-7.920;2023-11-21T02:10:40;8.83;;;4.40;;
60873;SDS011;46715;40.642;-7.920;2023-11-21T02:12:41;9.70;;;4.17;;
60873;SDS011;46715;40.642;-7.920;2023-11-21T02:16:43;6.28;;;3.92;;
60873;SDS011;46715;40.642;-7.920;2023-11-21T02:18:50;8.77;;;3.80;;
60873;SDS011;46715;40.642;-7.920;2023-11-21T02:20:52;8.90;;;4.55;;
60873;SDS011;46715;40.642;-7.920;2023-11-21T02:22:53;6.07;;;4.00;;
60873;SDS011;46715;40.642;-7.920;2023-11-21T02:24:58;7.78;;;4.13;;
60873;SDS011;46715;40.642;-7.920;2023-11-21T02:26:59;6.23;;;4.30;;
60873;SDS011;46715;40.642;-7.920;2023-11-21T02:29:00;8.38;;;4.55;;
60873;SDS011;46715;40.642;-7.920;2023-11-21T02:31:01;8.17;;;4.13;;
60873;SDS011;46715;40.642;-7.920;2023-11-21T02:33:03;9.00;;;4.03;;
60873;SDS011;46715;40.642;-7.920;2023-11-21T02:35:03;6.90;;;3.73;;
60873;SDS011;46715;40.642;-7.920;2023-11-21T02:37:08;7.68;;;3.78;;
60873;SDS011;46715;40.642;-7.920;2023-11-21T02:39:09;10.33;;;4.00;;
60873;SDS011;46715;40.642;-7.920;2023-11-21T02:43:11;8.05;;;4.18;;
60873;SDS011;46715;40.642;-7.920;2023-11-21T02:45:12;7.40;;;4.13;;
60873;SDS011;46715;40.642;-7.920;2023-11-21T02:47:16;8.20;;;4.10;;
60873;SDS011;46715;40.642;-7.920;2023-11-21T02:49:17;9.07;;;4.37;;
60873;SDS011;46715;40.642;-7.920;2023-11-21T02:51:18;8.33;;;4.10;;
60873;SDS011;46715;40.642;-7.920;2023-11-21T02:53:18;9.87;;;4.30;;
60873;SDS011;46715;40.642;-7.920;2023-11-21T02:55:19;9.90;;;4.63;;
60873;SDS011;46715;40.642;-7.920;2023-11-21T02:57:20;8.20;;;4.13;;
60873;SDS011;46715;40.642;-7.920;2023-11-21T02:59:20;8.97;;;4.20;;
60873;SDS011;46715;40.642;-7.920;2023-11-21T03:01:21;11.63;;;4.17;;
60873;SDS011;46715;40.642;-7.920;2023-11-21T03:03:24;9.80;;;4.55;;
60873;SDS011;46715;40.642;-7.920;2023-11-21T03:05:25;8.25;;;4.15;;
60873;SDS011;46715;40.642;-7.920;2023-11-21T03:07:26;10.97;;;3.73;;
60873;SDS011;46715;40.642;-7.920;2023-11-21T03:09:27;8.03;;;3.70;;
60873;SDS011;46715;40.642;-7.920;2023-11-21T03:11:28;9.77;;;4.43;;
60873;SDS011;46715;40.642;-7.920;2023-11-21T03:13:28;8.13;;;3.87;;
60873;SDS011;46715;40.642;-7.920;2023-11-21T03:15:29;10.63;;;4.07;;
60873;SDS011;46715;40.642;-7.920;2023-11-21T03:17:30;7.73;;;4.07;;
60873;SDS011;46715;40.642;-7.920;2023-11-21T03:19:31;10.07;;;4.30;;
60873;SDS011;46715;40.642;-7.920;2023-11-21T03:21:31;8.57;;;3.90;;
60873;SDS011;46715;40.642;-7.920;2023-11-21T03:23:32;8.70;;;4.13;;
60873;SDS011;46715;40.642;-7.920;2023-11-21T03:25:33;5.67;;;3.53;;
60873;SDS011;46715;40.642;-7.920;2023-11-21T03:27:33;6.33;;;3.80;;
60873;SDS011;46715;40.642;-7.920;2023-11-21T03:29:34;9.60;;;3.83;;
60873;SDS011;46715;40.642;-7.920;2023-11-21T03:31:35;6.63;;;3.63;;
60873;SDS011;46715;40.642;-7.920;2023-11-21T03:33:36;7.53;;;3.85;;
60873;SDS011;46715;40.642;-7.920;2023-11-21T03:35:37;8.47;;;3.90;;
60873;SDS011;46715;40.642;-7.920;2023-11-21T03:37:37;9.70;;;3.70;;
60873;SDS011;46715;40.642;-7.920;2023-11-21T03:39:41;6.68;;;3.45;;
60873;SDS011;46715;40.642;-7.920;2023-11-21T03:41:43;5.47;;;3.50;;
60873;SDS011;46715;40.642;-7.920;2023-11-21T03:43:44;5.40;;;3.80;;
60873;SDS011;46715;40.642;-7.920;2023-11-21T03:45:48;7.88;;;3.00;;
60873;SDS011;46715;40.642;-7.920;2023-11-21T03:47:51;7.15;;;3.28;;
60873;SDS011;46715;40.642;-7.920;2023-11-21T03:49:51;7.07;;;3.50;;
60873;SDS011;46715;40.642;-7.920;2023-11-21T03:51:52;6.33;;;3.50;;
60873;SDS011;46715;40.642;-7.920;2023-11-21T03:53:53;5.63;;;3.30;;
60873;SDS011;46715;40.642;-7.920;2023-11-21T03:55:53;5.90;;;3.00;;
60873;SDS011;46715;40.642;-7.920;2023-11-21T03:57:54;5.97;;;2.73;;
60873;SDS011;46715;40.642;-7.920;2023-11-21T03:59:55;5.97;;;2.63;;
60873;SDS011;46715;40.642;-7.920;2023-11-21T04:01:56;3.77;;;2.33;;
60873;SDS011;46715;40.642;-7.920;2023-11-21T04:03:57;6.53;;;2.90;;
60873;SDS011;46715;40.642;-7.920;2023-11-21T04:05:57;8.17;;;2.67;;
60873;SDS011;46715;40.642;-7.920;2023-11-21T04:07:58;9.33;;;2.67;;
60873;SDS011;46715;40.642;-7.920;2023-11-21T04:09:59;8.07;;;3.00;;
60873;SDS011;46715;40.642;-7.920;2023-11-21T04:12:00;4.80;;;2.75;;
60873;SDS011;46715;40.642;-7.920;2023-11-21T04:14:00;6.57;;;2.73;;
60873;SDS011;46715;40.642;-7.920;2023-11-21T04:16:01;5.43;;;2.90;;
60873;SDS011;46715;40.642;-7.920;2023-11-21T04:18:03;8.05;;;2.88;;
60873;SDS011;46715;40.642;-7.920;2023-11-21T04:20:04;4.67;;;2.30;;
60873;SDS011;46715;40.642;-7.920;2023-11-21T04:22:09;4.70;;;2.42;;
60873;SDS011;46715;40.642;-7.920;2023-11-21T04:24:09;5.03;;;2.10;;
60873;SDS011;46715;40.642;-7.920;2023-11-21T04:26:10;5.33;;;2.23;;
60873;SDS011;46715;40.642;-7.920;2023-11-21T04:28:11;3.90;;;2.27;;
60873;SDS011;46715;40.642;-7.920;2023-11-21T04:30:12;7.70;;;2.50;;
60873;SDS011;46715;40.642;-7.920;2023-11-21T04:32:14;4.95;;;2.60;;
60873;SDS011;46715;40.642;-7.920;2023-11-21T04:34:15;4.67;;;2.50;;
60873;SDS011;46715;40.642;-7.920;2023-11-21T04:36:15;5.40;;;2.73;;
60873;SDS011;46715;40.642;-7.920;2023-11-21T04:38:16;4.97;;;2.60;;
60873;SDS011;46715;40.642;-7.920;2023-11-21T04:40:17;5.00;;;2.47;;
60873;SDS011;46715;40.642;-7.920;2023-11-21T04:42:18;5.83;;;2.73;;
60873;SDS011;46715;40.642;-7.920;2023-11-21T04:44:18;4.87;;;2.30;;
60873;SDS011;46715;40.642;-7.920;2023-11-21T04:46:19;8.87;;;3.03;;
60873;SDS011;46715;40.642;-7.920;2023-11-21T04:48:20;5.50;;;2.83;;
60873;SDS011;46715;40.642;-7.920;2023-11-21T04:50:20;4.43;;;2.63;;
60873;SDS011;46715;40.642;-7.920;2023-11-21T04:52:21;4.90;;;2.80;;
60873;SDS011;46715;40.642;-7.920;2023-11-21T04:54:22;7.30;;;3.20;;
60873;SDS011;46715;40.642;-7.920;2023-11-21T04:56:23;8.13;;;2.55;;
60873;SDS011;46715;40.642;-7.920;2023-11-21T04:58:23;6.97;;;2.47;;
60873;SDS011;46715;40.642;-7.920;2023-11-21T05:00:24;3.67;;;2.40;;
60873;SDS011;46715;40.642;-7.920;2023-11-21T05:02:25;7.10;;;2.87;;
60873;SDS011;46715;40.642;-7.920;2023-11-21T05:04:26;6.37;;;2.37;;
60873;SDS011;46715;40.642;-7.920;2023-11-21T05:06:27;6.35;;;2.40;;
60873;SDS011;46715;40.642;-7.920;2023-11-21T05:08:27;4.00;;;2.27;;
60873;SDS011;46715;40.642;-7.920;2023-11-21T05:10:28;5.77;;;2.00;;
60873;SDS011;46715;40.642;-7.920;2023-11-21T05:12:31;4.85;;;2.10;;
60873;SDS011;46715;40.642;-7.920;2023-11-21T05:14:38;2.92;;;1.85;;
60873;SDS011;46715;40.642;-7.920;2023-11-21T05:16:38;5.73;;;1.93;;
60873;SDS011;46715;40.642;-7.920;2023-11-21T05:18:39;3.20;;;1.90;;
60873;SDS011;46715;40.642;-7.920;2023-11-21T05:20:40;4.20;;;2.10;;
60873;SDS011;46715;40.642;-7.920;2023-11-21T05:22:41;6.37;;;2.30;;
60873;SDS011;46715;40.642;-7.920;2023-11-21T05:24:42;3.37;;;1.87;;
60873;SDS011;46715;40.642;-7.920;2023-11-21T05:26:42;4.70;;;2.07;;
60873;SDS011;46715;40.642;-7.920;2023-11-21T05:28:43;5.07;;;2.00;;
60873;SDS011;46715;40.642;-7.920;2023-11-21T05:30:44;3.83;;;1.93;;
60873;SDS011;46715;40.642;-7.920;2023-11-21T05:32:44;3.53;;;1.77;;
60873;SDS011;46715;40.642;-7.920;2023-11-21T05:36:47;3.78;;;1.70;;
60873;SDS011;46715;40.642;-7.920;2023-11-21T05:38:47;5.33;;;1.87;;
60873;SDS011;46715;40.642;-7.920;2023-11-21T05:40:48;3.33;;;1.40;;
60873;SDS011;46715;40.642;-7.920;2023-11-21T05:42:49;6.63;;;1.80;;
60873;SDS011;46715;40.642;-7.920;2023-11-21T05:44:51;5.18;;;1.63;;
60873;SDS011;46715;40.642;-7.920;2023-11-21T05:46:52;4.10;;;2.10;;
60873;SDS011;46715;40.642;-7.920;2023-11-21T05:48:53;2.00;;;1.33;;
60873;SDS011;46715;40.642;-7.920;2023-11-21T05:50:55;4.85;;;1.70;;
60873;SDS011;46715;40.642;-7.920;2023-11-21T05:52:55;3.63;;;1.50;;
60873;SDS011;46715;40.642;-7.920;2023-11-21T05:54:57;3.65;;;1.65;;
60873;SDS011;46715;40.642;-7.920;2023-11-21T05:56:58;5.87;;;1.50;;
60873;SDS011;46715;40.642;-7.920;2023-11-21T05:58:59;5.68;;;1.95;;
60873;SDS011;46715;40.642;-7.920;2023-11-21T06:01:01;2.40;;;1.90;;
60873;SDS011;46715;40.642;-7.920;2023-11-21T06:03:01;6.80;;;1.70;;
60873;SDS011;46715;40.642;-7.920;2023-11-21T06:05:03;3.75;;;1.50;;
60873;SDS011;46715;40.642;-7.920;2023-11-21T06:07:04;3.75;;;1.40;;
60873;SDS011;46715;40.642;-7.920;2023-11-21T06:09:05;6.17;;;1.87;;
60873;SDS011;46715;40.642;-7.920;2023-11-21T06:11:09;2.22;;;1.40;;
60873;SDS011;46715;40.642;-7.920;2023-11-21T06:13:11;3.83;;;1.40;;
60873;SDS011;46715;40.642;-7.920;2023-11-21T06:15:12;2.53;;;1.40;;
60873;SDS011;46715;40.642;-7.920;2023-11-21T06:17:13;4.40;;;1.40;;
60873;SDS011;46715;40.642;-7.920;2023-11-21T06:19:14;5.10;;;1.70;;
60873;SDS011;46715;40.642;-7.920;2023-11-21T06:21:15;4.70;;;1.60;;
60873;SDS011;46715;40.642;-7.920;2023-11-21T06:23:17;1.52;;;1.40;;
60873;SDS011;46715;40.642;-7.920;2023-11-21T06:25:17;3.77;;;1.57;;
60873;SDS011;46715;40.642;-7.920;2023-11-21T06:27:18;4.90;;;1.60;;
60873;SDS011;46715;40.642;-7.920;2023-11-21T06:29:19;1.98;;;1.30;;
60873;SDS011;46715;40.642;-7.920;2023-11-21T06:31:20;5.17;;;1.80;;
60873;SDS011;46715;40.642;-7.920;2023-11-21T06:33:22;3.17;;;1.38;;
60873;SDS011;46715;40.642;-7.920;2023-11-21T06:35:22;2.43;;;1.27;;
60873;SDS011;46715;40.642;-7.920;2023-11-21T06:37:23;3.47;;;1.20;;
60873;SDS011;46715;40.642;-7.920;2023-11-21T06:39:24;9.40;;;1.70;;
60873;SDS011;46715;40.642;-7.920;2023-11-21T06:41:24;3.30;;;1.57;;
60873;SDS011;46715;40.642;-7.920;2023-11-21T06:43:25;6.93;;;1.53;;
60873;SDS011;46715;40.642;-7.920;2023-11-21T06:45:27;2.63;;;1.33;;
60873;SDS011;46715;40.642;-7.920;2023-11-21T06:47:27;1.97;;;1.20;;
60873;SDS011;46715;40.642;-7.920;2023-11-21T06:49:29;5.07;;;1.42;;
60873;SDS011;46715;40.642;-7.920;2023-11-21T06:51:31;4.05;;;1.60;;
60873;SDS011;46715;40.642;-7.920;2023-11-21T06:53:32;4.47;;;1.53;;
60873;SDS011;46715;40.642;-7.920;2023-11-21T06:55:33;3.17;;;1.40;;
60873;SDS011;46715;40.642;-7.920;2023-11-21T06:57:33;3.63;;;1.40;;
60873;SDS011;46715;40.642;-7.920;2023-11-21T06:59:34;4.13;;;1.70;;
60873;SDS011;46715;40.642;-7.920;2023-11-21T07:01:35;6.70;;;1.70;;
60873;SDS011;46715;40.642;-7.920;2023-11-21T07:03:39;4.65;;;1.95;;
60873;SDS011;46715;40.642;-7.920;2023-11-21T07:05:40;4.20;;;1.70;;
60873;SDS011;46715;40.642;-7.920;2023-11-21T07:07:41;4.37;;;1.67;;
60873;SDS011;46715;40.642;-7.920;2023-11-21T07:09:41;2.43;;;1.67;;
60873;SDS011;46715;40.642;-7.920;2023-11-21T07:11:42;2.07;;;1.50;;
60873;SDS011;46715;40.642;-7.920;2023-11-21T07:13:43;2.17;;;1.40;;
60873;SDS011;46715;40.642;-7.920;2023-11-21T07:15:43;5.40;;;1.67;;
60873;SDS011;46715;40.642;-7.920;2023-11-21T07:17:44;4.45;;;1.77;;
60873;SDS011;46715;40.642;-7.920;2023-11-21T07:19:44;6.43;;;2.10;;
60873;SDS011;46715;40.642;-7.920;2023-11-21T07:21:45;10.10;;;2.93;;
60873;SDS011;46715;40.642;-7.920;2023-11-21T07:23:46;4.17;;;2.17;;
60873;SDS011;46715;40.642;-7.920;2023-11-21T07:25:46;4.37;;;1.93;;
60873;SDS011;46715;40.642;-7.920;2023-11-21T07:27:47;3.43;;;2.40;;
60873;SDS011;46715;40.642;-7.920;2023-11-21T07:29:48;5.10;;;1.80;;
60873;SDS011;46715;40.642;-7.920;2023-11-21T07:31:48;5.40;;;2.47;;
60873;SDS011;46715;40.642;-7.920;2023-11-21T07:33:50;8.90;;;1.88;;
60873;SDS011;46715;40.642;-7.920;2023-11-21T07:35:51;5.93;;;2.60;;
60873;SDS011;46715;40.642;-7.920;2023-11-21T07:37:52;5.77;;;2.30;;
60873;SDS011;46715;40.642;-7.920;2023-11-21T07:39:52;6.17;;;2.43;;
60873;SDS011;46715;40.642;-7.920;2023-11-21T07:41:56;4.00;;;2.55;;
60873;SDS011;46715;40.642;-7.920;2023-11-21T07:43:58;3.53;;;2.25;;
60873;SDS011;46715;40.642;-7.920;2023-11-21T07:45:58;8.37;;;2.53;;
60873;SDS011;46715;40.642;-7.920;2023-11-21T07:47:59;7.30;;;2.20;;
60873;SDS011;46715;40.642;-7.920;2023-11-21T07:50:04;2.35;;;1.80;;
60873;SDS011;46715;40.642;-7.920;2023-11-21T07:52:07;3.35;;;1.88;;
60873;SDS011;46715;40.642;-7.920;2023-11-21T07:54:08;6.17;;;1.90;;
60873;SDS011;46715;40.642;-7.920;2023-11-21T07:56:09;5.70;;;1.77;;
60873;SDS011;46715;40.642;-7.920;2023-11-21T07:58:10;3.70;;;1.83;;
60873;SDS011;46715;40.642;-7.920;2023-11-21T08:00:13;3.22;;;1.70;;
60873;SDS011;46715;40.642;-7.920;2023-11-21T08:02:15;6.20;;;1.65;;
60873;SDS011;46715;40.642;-7.920;2023-11-21T08:04:17;7.03;;;2.78;;
60873;SDS011;46715;40.642;-7.920;2023-11-21T08:06:18;6.30;;;2.33;;
60873;SDS011;46715;40.642;-7.920;2023-11-21T08:08:19;3.43;;;1.70;;
60873;SDS011;46715;40.642;-7.920;2023-11-21T08:10:20;5.88;;;1.90;;
60873;SDS011;46715;40.642;-7.920;2023-11-21T08:12:21;3.83;;;2.00;;
60873;SDS011;46715;40.642;-7.920;2023-11-21T08:14:22;4.33;;;2.03;;
60873;SDS011;46715;40.642;-7.920;2023-11-21T08:16:26;5.20;;;2.90;;
60873;SDS011;46715;40.642;-7.920;2023-11-21T08:18:27;6.97;;;2.47;;
60873;SDS011;46715;40.642;-7.920;2023-11-21T08:20:28;7.60;;;3.10;;
60873;SDS011;46715;40.642;-7.920;2023-11-21T08:22:29;6.17;;;3.83;;
60873;SDS011;46715;40.642;-7.920;2023-11-21T08:24:31;7.20;;;4.10;;
60873;SDS011;46715;40.642;-7.920;2023-11-21T08:26:31;8.63;;;4.32;;
60873;SDS011;46715;40.642;-7.920;2023-11-21T08:28:33;5.57;;;3.47;;
60873;SDS011;46715;40.642;-7.920;2023-11-21T08:30:33;6.33;;;2.90;;
60873;SDS011;46715;40.642;-7.920;2023-11-21T08:32:35;6.45;;;3.25;;
60873;SDS011;46715;40.642;-7.920;2023-11-21T08:34:36;3.87;;;2.60;;
60873;SDS011;46715;40.642;-7.920;2023-11-21T08:36:40;4.60;;;1.90;;
60873;SDS011;46715;40.642;-7.920;2023-11-21T08:38:44;2.63;;;1.90;;
60873;SDS011;46715;40.642;-7.920;2023-11-21T08:40:45;4.30;;;1.73;;
60873;SDS011;46715;40.642;-7.920;2023-11-21T08:42:45;2.67;;;1.40;;
60873;SDS011;46715;40.642;-7.920;2023-11-21T08:44:46;3.93;;;2.27;;
60873;SDS011;46715;40.642;-7.920;2023-11-21T08:46:47;6.53;;;1.87;;
60873;SDS011;46715;40.642;-7.920;2023-11-21T08:48:48;5.03;;;1.73;;
60873;SDS011;46715;40.642;-7.920;2023-11-21T08:50:48;2.47;;;1.63;;
60873;SDS011;46715;40.642;-7.920;2023-11-21T08:52:49;4.97;;;1.97;;
60873;SDS011;46715;40.642;-7.920;2023-11-21T08:54:50;3.65;;;1.63;;
60873;SDS011;46715;40.642;-7.920;2023-11-21T08:56:56;4.00;;;1.80;;
60873;SDS011;46715;40.642;-7.920;2023-11-21T08:58:58;2.75;;;1.35;;
60873;SDS011;46715;40.642;-7.920;2023-11-21T09:01:00;2.65;;;1.63;;
60873;SDS011;46715;40.642;-7.920;2023-11-21T09:03:01;6.13;;;2.57;;
60873;SDS011;46715;40.642;-7.920;2023-11-21T09:05:04;4.30;;;1.77;;
60873;SDS011;46715;40.642;-7.920;2023-11-21T09:07:06;6.18;;;2.00;;
60873;SDS011;46715;40.642;-7.920;2023-11-21T09:09:06;3.20;;;1.93;;
60873;SDS011;46715;40.642;-7.920;2023-11-21T09:11:08;3.08;;;1.30;;
60873;SDS011;46715;40.642;-7.920;2023-11-21T09:13:09;3.50;;;1.27;;
60873;SDS011;46715;40.642;-7.920;2023-11-21T09:15:10;3.15;;;1.42;;
60873;SDS011;46715;40.642;-7.920;2023-11-21T09:17:12;3.60;;;1.10;;
60873;SDS011;46715;40.642;-7.920;2023-11-21T09:19:12;2.63;;;1.23;;
60873;SDS011;46715;40.642;-7.920;2023-11-21T09:21:14;5.90;;;1.60;;
60873;SDS011;46715;40.642;-7.920;2023-11-21T09:23:15;4.07;;;1.60;;
60873;SDS011;46715;40.642;-7.920;2023-11-21T09:25:16;3.90;;;1.33;;
60873;SDS011;46715;40.642;-7.920;2023-11-21T09:27:18;4.05;;;1.50;;
60873;SDS011;46715;40.642;-7.920;2023-11-21T09:29:19;2.15;;;1.17;;
60873;SDS011;46715;40.642;-7.920;2023-11-21T09:31:20;4.43;;;1.80;;
60873;SDS011;46715;40.642;-7.920;2023-11-21T09:33:22;6.47;;;3.15;;
60873;SDS011;46715;40.642;-7.920;2023-11-21T09:35:25;5.63;;;2.67;;
60873;SDS011;46715;40.642;-7.920;2023-11-21T09:37:26;4.73;;;2.47;;
60873;SDS011;46715;40.642;-7.920;2023-11-21T09:39:27;4.43;;;2.20;;
60873;SDS011;46715;40.642;-7.920;2023-11-21T09:41:33;5.47;;;2.47;;
60873;SDS011;46715;40.642;-7.920;2023-11-21T09:43:45;3.88;;;1.45;;
60873;SDS011;46715;40.642;-7.920;2023-11-21T09:45:48;6.00;;;1.33;;
60873;SDS011;46715;40.642;-7.920;2023-11-21T09:47:57;3.42;;;1.60;;
60873;SDS011;46715;40.642;-7.920;2023-11-21T09:49:57;5.00;;;1.80;;
60873;SDS011;46715;40.642;-7.920;2023-11-21T09:52:01;5.50;;;1.90;;
60873;SDS011;46715;40.642;-7.920;2023-11-21T09:54:05;3.83;;;1.65;;
60873;SDS011;46715;40.642;-7.920;2023-11-21T09:56:09;6.20;;;2.00;;
60873;SDS011;46715;40.642;-7.920;2023-11-21T09:58:10;4.07;;;1.60;;
60873;SDS011;46715;40.642;-7.920;2023-11-21T10:00:14;2.95;;;1.60;;
60873;SDS011;46715;40.642;-7.920;2023-11-21T10:02:18;4.88;;;2.03;;
60873;SDS011;46715;40.642;-7.920;2023-11-21T10:04:20;6.47;;;2.33;;
60873;SDS011;46715;40.642;-7.920;2023-11-21T10:06:21;6.00;;;2.17;;
60873;SDS011;46715;40.642;-7.920;2023-11-21T10:08:25;4.82;;;1.95;;
60873;SDS011;46715;40.642;-7.920;2023-11-21T10:10:28;3.72;;;2.20;;
60873;SDS011;46715;40.642;-7.920;2023-11-21T10:12:32;3.28;;;1.63;;
60873;SDS011;46715;40.642;-7.920;2023-11-21T10:14:34;5.25;;;2.40;;
60873;SDS011;46715;40.642;-7.920;2023-11-21T10:16:41;4.57;;;1.63;;
60873;SDS011;46715;40.642;-7.920;2023-11-21T10:18:44;2.65;;;1.52;;
60873;SDS011;46715;40.642;-7.920;2023-11-21T10:20:46;9.90;;;6.57;;
60873;SDS011;46715;40.642;-7.920;2023-11-21T10:22:52;4.50;;;1.92;;
60873;SDS011;46715;40.642;-7.920;2023-11-21T10:24:52;2.87;;;1.57;;
60873;SDS011;46715;40.642;-7.920;2023-11-21T10:26:53;3.88;;;2.10;;
60873;SDS011;46715;40.642;-7.920;2023-11-21T10:28:55;5.43;;;2.13;;
60873;SDS011;46715;40.642;-7.920;2023-11-21T10:30:57;5.45;;;2.28;;
60873;SDS011;46715;40.642;-7.920;2023-11-21T10:32:59;5.57;;;2.47;;
60873;SDS011;46715;40.642;-7.920;2023-11-21T10:35:03;5.50;;;1.85;;
60873;SDS011;46715;40.642;-7.920;2023-11-21T10:37:13;4.25;;;1.83;;
60873;SDS011;46715;40.642;-7.920;2023-11-21T10:39:16;3.63;;;2.45;;
60873;SDS011;46715;40.642;-7.920;2023-11-21T10:41:18;4.88;;;1.92;;
60873;SDS011;46715;40.642;-7.920;2023-11-21T10:43:20;3.22;;;2.10;;
60873;SDS011;46715;40.642;-7.920;2023-11-21T10:45:25;6.15;;;2.97;;
60873;SDS011;46715;40.642;-7.920;2023-11-21T10:47:30;3.30;;;1.80;;
60873;SDS011;46715;40.642;-7.920;2023-11-21T10:49:31;5.95;;;2.13;;
60873;SDS011;46715;40.642;-7.920;2023-11-21T10:51:32;6.10;;;1.90;;
60873;SDS011;46715;40.642;-7.920;2023-11-21T10:53:32;3.97;;;1.70;;
60873;SDS011;46715;40.642;-7.920;2023-11-21T10:55:33;6.80;;;2.07;;
60873;SDS011;46715;40.642;-7.920;2023-11-21T10:57:35;2.92;;;1.73;;
60873;SDS011;46715;40.642;-7.920;2023-11-21T10:59:36;3.33;;;1.63;;
60873;SDS011;46715;40.642;-7.920;2023-11-21T11:01:38;2.45;;;1.63;;
60873;SDS011;46715;40.642;-7.920;2023-11-21T11:03:39;4.93;;;1.77;;
60873;SDS011;46715;40.642;-7.920;2023-11-21T11:05:43;6.47;;;1.60;;
60873;SDS011;46715;40.642;-7.920;2023-11-21T11:07:52;7.43;;;3.63;;
60873;SDS011;46715;40.642;-7.920;2023-11-21T11:10:01;4.25;;;1.60;;
60873;SDS011;46715;40.642;-7.920;2023-11-21T11:12:04;5.40;;;1.40;;
60873;SDS011;46715;40.642;-7.920;2023-11-21T11:14:08;4.93;;;2.08;;
60873;SDS011;46715;40.642;-7.920;2023-11-21T11:16:12;3.47;;;1.50;;
60873;SDS011;46715;40.642;-7.920;2023-11-21T11:18:17;3.13;;;1.63;;
60873;SDS011;46715;40.642;-7.920;2023-11-21T11:20:21;2.95;;;1.38;;
60873;SDS011;46715;40.642;-7.920;2023-11-21T11:22:59;2.97;;;1.95;;
60873;SDS011;46715;40.642;-7.920;2023-11-21T11:27:40;5.88;;;1.20;;
60873;SDS011;46715;40.642;-7.920;2023-11-21T11:32:16;3.10;;;1.70;;
60873;SDS011;46715;40.642;-7.920;2023-11-21T11:34:35;6.63;;;1.30;;
60873;SDS011;46715;40.642;-7.920;2023-11-21T11:36:51;2.90;;;1.70;;
60873;SDS011;46715;40.642;-7.920;2023-11-21T11:39:00;3.60;;;1.40;;
60873;SDS011;46715;40.642;-7.920;2023-11-21T11:41:02;2.33;;;1.20;;
60873;SDS011;46715;40.642;-7.920;2023-11-21T11:43:07;1.98;;;1.23;;
60873;SDS011;46715;40.642;-7.920;2023-11-21T11:45:17;3.33;;;1.20;;
60873;SDS011;46715;40.642;-7.920;2023-11-21T11:47:27;4.43;;;1.80;;
60873;SDS011;46715;40.642;-7.920;2023-11-21T11:49:33;3.67;;;1.23;;
60873;SDS011;46715;40.642;-7.920;2023-11-21T11:51:33;3.07;;;1.60;;
60873;SDS011;46715;40.642;-7.920;2023-11-21T11:53:36;4.50;;;1.60;;
60873;SDS011;46715;40.642;-7.920;2023-11-21T11:55:40;5.95;;;1.48;;
60873;SDS011;46715;40.642;-7.920;2023-11-21T11:57:41;3.28;;;1.80;;
60873;SDS011;46715;40.642;-7.920;2023-11-21T12:02:16;2.88;;;1.40;;
60873;SDS011;46715;40.642;-7.920;2023-11-21T12:06:30;2.50;;;1.23;;
60873;SDS011;46715;40.642;-7.920;2023-11-21T12:08:34;3.05;;;1.10;;
60873;SDS011;46715;40.642;-7.920;2023-11-21T12:10:36;2.45;;;1.15;;
60873;SDS011;46715;40.642;-7.920;2023-11-21T12:12:41;5.90;;;1.40;;
60873;SDS011;46715;40.642;-7.920;2023-11-21T12:14:43;1.92;;;1.10;;
60873;SDS011;46715;40.642;-7.920;2023-11-21T12:16:44;2.95;;;1.55;;